createdAt,value
2022-08-24T00:00:20.948Z,25.50
2022-08-24T00:02:48.778Z,25.50
2022-08-24T00:05:16.091Z,25.40
2022-08-24T00:07:43.241Z,25.40
2022-08-24T00:10:11.357Z,25.40
2022-08-24T00:12:38.047Z,25.40
2022-08-24T00:15:07.635Z,25.30
2022-08-24T00:17:34.380Z,25.30
2022-08-24T00:20:01.154Z,25.30
2022-08-24T00:22:28.870Z,25.20
2022-08-24T00:24:56.747Z,25.20
2022-08-24T00:27:23.736Z,25.20
2022-08-24T00:29:50.434Z,25.10
2022-08-24T00:32:17.076Z,25.10
2022-08-24T00:34:56.150Z,25.20
2022-08-24T00:37:27.368Z,25.00
2022-08-24T00:39:54.525Z,25.00
2022-08-24T00:42:21.272Z,24.90
2022-08-24T00:44:48.061Z,24.90
2022-08-24T00:47:22.781Z,24.90
2022-08-24T00:49:49.559Z,24.80
2022-08-24T00:52:22.078Z,24.80
2022-08-24T00:54:54.094Z,24.80
2022-08-24T00:57:23.204Z,24.70
2022-08-24T00:59:59.347Z,24.70
2022-08-24T01:02:29.969Z,24.60
2022-08-24T01:05:00.806Z,24.60
2022-08-24T01:07:29.761Z,24.50
2022-08-24T01:09:59.425Z,24.50
2022-08-24T01:12:28.078Z,24.40
2022-08-24T01:14:56.739Z,24.40
2022-08-24T01:17:42.958Z,24.40
2022-08-24T01:20:10.609Z,24.30
2022-08-24T01:22:56.251Z,24.30
2022-08-24T01:25:25.456Z,24.30
2022-08-24T01:27:54.853Z,24.30
2022-08-24T01:30:30.641Z,24.20
2022-08-24T01:33:06.866Z,24.20
2022-08-24T01:35:34.895Z,24.10
2022-08-24T01:38:03.939Z,24.10
2022-08-24T01:40:37.404Z,24.10
2022-08-24T01:43:06.645Z,24.20
2022-08-24T01:45:34.518Z,24.00
2022-08-24T01:48:02.736Z,24.00
2022-08-24T01:50:29.738Z,23.90
2022-08-24T01:53:05.312Z,23.90
2022-08-24T01:55:33.058Z,23.90
2022-08-24T01:57:59.910Z,23.80
2022-08-24T02:00:27.609Z,23.70
2022-08-24T02:02:56.536Z,23.70
2022-08-24T02:05:24.314Z,23.70
2022-08-24T02:07:51.876Z,23.70
2022-08-24T02:10:19.113Z,23.60
2022-08-24T02:12:57.625Z,23.60
2022-08-24T02:15:30.967Z,23.60
2022-08-24T02:17:58.349Z,23.50
2022-08-24T02:20:25.253Z,23.50
2022-08-24T02:22:53.180Z,23.50
2022-08-24T02:25:21.064Z,23.40
2022-08-24T02:27:47.824Z,23.40
2022-08-24T02:30:15.130Z,23.40
2022-08-24T02:32:42.170Z,23.40
2022-08-24T02:35:09.998Z,23.30
2022-08-24T02:37:43.321Z,23.30
2022-08-24T02:40:12.547Z,23.20
2022-08-24T02:42:39.837Z,23.20
2022-08-24T02:45:07.281Z,23.20
2022-08-24T02:47:38.359Z,23.10
2022-08-24T02:50:11.097Z,23.10
2022-08-24T02:52:39.500Z,23.10
2022-08-24T02:55:08.329Z,23.10
2022-08-24T02:57:35.060Z,23.00
2022-08-24T03:00:10.439Z,23.00
2022-08-24T03:02:38.023Z,23.00
2022-08-24T03:05:05.379Z,23.00
2022-08-24T03:07:32.106Z,22.90
2022-08-24T03:09:58.856Z,22.90
2022-08-24T03:12:25.564Z,22.80
2022-08-24T03:14:52.245Z,22.80
2022-08-24T03:17:19.226Z,22.80
2022-08-24T03:19:46.577Z,22.70
2022-08-24T03:22:13.329Z,22.70
2022-08-24T03:24:40.165Z,22.70
2022-08-24T03:27:07.089Z,22.60
2022-08-24T03:29:35.833Z,22.60
2022-08-24T03:32:02.849Z,22.50
2022-08-24T03:34:29.930Z,22.50
2022-08-24T03:36:56.662Z,22.50
2022-08-24T03:39:23.376Z,22.50
2022-08-24T03:41:50.121Z,22.40
2022-08-24T03:44:20.130Z,22.40
2022-08-24T03:46:49.296Z,22.40
2022-08-24T03:49:16.124Z,22.30
2022-08-24T03:51:42.828Z,22.30
2022-08-24T03:54:12.131Z,22.30
2022-08-24T03:56:39.388Z,22.30
2022-08-24T03:59:07.786Z,22.20
2022-08-24T04:01:34.588Z,22.20
2022-08-24T04:04:01.515Z,22.20
2022-08-24T04:06:28.455Z,22.20
2022-08-24T04:08:56.275Z,22.20
2022-08-24T04:11:25.103Z,22.10
2022-08-24T04:13:56.512Z,22.10
2022-08-24T04:16:23.911Z,22.00
2022-08-24T04:18:50.777Z,22.00
2022-08-24T04:21:22.502Z,22.00
2022-08-24T04:23:49.601Z,22.00
2022-08-24T04:26:34.131Z,21.90
2022-08-24T04:29:08.198Z,21.90
2022-08-24T04:31:36.831Z,21.90
2022-08-24T04:34:04.467Z,21.80
2022-08-24T04:36:31.925Z,21.80
2022-08-24T04:38:58.884Z,21.80
2022-08-24T04:41:31.051Z,21.70
2022-08-24T04:43:59.470Z,21.70
2022-08-24T04:46:26.964Z,21.70
2022-08-24T04:48:53.793Z,21.70
2022-08-24T04:51:21.155Z,21.60
2022-08-24T04:53:48.777Z,21.60
2022-08-24T04:56:18.546Z,21.60
2022-08-24T04:58:47.222Z,21.50
2022-08-24T05:01:16.036Z,21.50
2022-08-24T05:03:46.204Z,21.60
2022-08-24T05:06:15.361Z,21.50
2022-08-24T05:08:43.348Z,21.50
2022-08-24T05:11:10.659Z,21.40
2022-08-24T05:13:38.195Z,21.40
2022-08-24T05:16:10.435Z,21.40
2022-08-24T05:18:37.881Z,21.40
2022-08-24T05:21:13.338Z,21.40
2022-08-24T05:23:44.002Z,21.40
2022-08-24T05:26:16.517Z,21.30
2022-08-24T05:28:43.647Z,21.30
2022-08-24T05:31:21.786Z,21.30
2022-08-24T05:33:49.497Z,21.20
2022-08-24T05:36:26.293Z,21.20
2022-08-24T05:38:55.846Z,21.20
2022-08-24T05:41:22.847Z,21.20
2022-08-24T05:43:49.946Z,21.20
2022-08-24T05:46:16.755Z,21.20
2022-08-24T05:48:52.510Z,21.20
2022-08-24T05:51:20.679Z,21.20
2022-08-24T05:53:47.595Z,21.20
2022-08-24T05:56:15.962Z,21.20
2022-08-24T05:58:42.743Z,21.20
2022-08-24T06:01:11.413Z,21.20
2022-08-24T06:03:39.501Z,21.20
2022-08-24T06:06:08.600Z,21.20
2022-08-24T06:08:41.272Z,21.20
2022-08-24T06:11:08.847Z,21.20
2022-08-24T06:13:36.638Z,21.20
2022-08-24T06:16:25.070Z,21.20
2022-08-24T06:18:53.203Z,21.20
2022-08-24T06:21:28.163Z,21.20
2022-08-24T06:23:56.119Z,21.30
2022-08-24T06:26:41.702Z,21.30
2022-08-24T06:29:08.920Z,21.30
2022-08-24T06:31:40.080Z,21.40
2022-08-24T06:34:09.688Z,21.40
2022-08-24T06:36:36.744Z,21.40
2022-08-24T06:39:05.480Z,21.50
2022-08-24T06:41:32.831Z,21.50
2022-08-24T06:43:59.515Z,21.60
2022-08-24T06:46:32.023Z,21.60
2022-08-24T06:48:59.844Z,21.70
2022-08-24T06:51:26.611Z,21.60
2022-08-24T06:53:56.108Z,21.70
2022-08-24T06:56:23.039Z,21.80
2022-08-24T06:58:49.992Z,21.80
2022-08-24T07:01:20.014Z,21.80
2022-08-24T07:03:47.165Z,21.90
2022-08-24T07:06:14.522Z,21.90
2022-08-24T07:08:42.577Z,22.10
2022-08-24T07:11:10.565Z,22.10
2022-08-24T07:13:37.262Z,22.20
2022-08-24T07:16:04.830Z,22.30
2022-08-24T07:18:31.660Z,22.30
2022-08-24T07:21:02.260Z,22.40
2022-08-24T07:23:42.220Z,22.60
2022-08-24T07:26:21.562Z,22.60
2022-08-24T07:29:04.743Z,22.70
2022-08-24T07:31:35.421Z,22.90
2022-08-24T07:34:03.698Z,22.90
2022-08-24T07:36:30.544Z,23.10
2022-08-24T07:38:57.428Z,23.20
2022-08-24T07:44:13.285Z,23.50
2022-08-24T07:46:40.927Z,23.70
2022-08-24T07:49:29.254Z,23.70
2022-08-24T07:51:56.080Z,23.90
2022-08-24T07:54:22.884Z,24.00
2022-08-24T07:56:50.255Z,24.10
2022-08-24T07:59:17.469Z,24.20
2022-08-24T08:01:44.227Z,24.30
2022-08-24T08:04:11.062Z,24.40
2022-08-24T08:06:37.995Z,24.50
2022-08-24T08:09:05.697Z,24.60
2022-08-24T08:11:32.595Z,24.80
2022-08-24T08:13:59.435Z,24.90
2022-08-24T08:16:26.425Z,25.00
2022-08-24T08:19:09.261Z,25.10
2022-08-24T08:22:09.350Z,25.20
2022-08-24T08:24:38.469Z,25.30
2022-08-24T08:27:05.522Z,25.50
2022-08-24T08:29:33.738Z,25.60
2022-08-24T08:32:00.719Z,25.70
2022-08-24T08:34:27.779Z,25.80
2022-08-24T08:36:54.583Z,25.90
2022-08-24T08:39:22.352Z,26.00
2022-08-24T08:42:16.219Z,26.20
2022-08-24T08:44:48.776Z,26.20
2022-08-24T08:47:46.414Z,26.40
2022-08-24T08:50:45.081Z,26.50
2022-08-24T08:53:30.028Z,26.60
2022-08-24T08:56:15.586Z,26.70
2022-08-24T08:59:12.789Z,26.80
2022-08-24T09:01:53.668Z,26.90
2022-08-24T09:04:50.531Z,27.10
2022-08-24T09:07:36.147Z,27.20
2022-08-24T09:10:12.223Z,27.40
2022-08-24T09:13:17.255Z,27.50
2022-08-24T09:16:12.245Z,27.60
2022-08-24T09:19:12.415Z,27.70
2022-08-24T09:22:13.220Z,27.80
2022-08-24T09:24:55.136Z,27.90
2022-08-24T09:27:40.314Z,28.00
2022-08-24T09:30:18.683Z,28.20
2022-08-24T09:33:10.313Z,28.30
2022-08-24T09:36:07.347Z,28.40
2022-08-24T09:38:34.764Z,28.50
2022-08-24T09:41:22.888Z,28.60
2022-08-24T09:44:23.988Z,28.70
2022-08-24T09:47:21.170Z,28.80
2022-08-24T09:50:09.602Z,29.00
2022-08-24T09:53:15.628Z,29.10
2022-08-24T09:55:57.557Z,29.20
2022-08-24T09:58:39.029Z,29.30
2022-08-24T10:01:08.943Z,29.40
2022-08-24T10:03:56.047Z,29.50
2022-08-24T10:06:32.360Z,29.60
2022-08-24T10:09:47.194Z,29.70
2022-08-24T10:12:35.624Z,29.80
2022-08-24T10:15:04.955Z,29.90
2022-08-24T10:17:40.319Z,30.00
2022-08-24T10:20:26.167Z,30.00
2022-08-24T10:23:18.029Z,30.10
2022-08-24T10:26:04.492Z,30.20
2022-08-24T10:28:43.451Z,30.30
2022-08-24T10:31:19.621Z,30.40
2022-08-24T10:34:33.795Z,30.50
2022-08-24T10:37:19.519Z,30.60
2022-08-24T10:40:25.234Z,30.70
2022-08-24T10:43:29.774Z,30.70
2022-08-24T10:46:02.623Z,30.80
2022-08-24T10:48:33.241Z,30.90
2022-08-24T10:51:20.175Z,30.90
2022-08-24T10:53:52.674Z,30.90
2022-08-24T10:56:21.839Z,31.00
2022-08-24T10:59:11.937Z,31.10
2022-08-24T11:01:39.349Z,31.20
2022-08-24T11:04:08.913Z,31.30
2022-08-24T11:06:41.363Z,31.30
2022-08-24T11:09:18.682Z,31.30
2022-08-24T11:11:48.526Z,31.30
2022-08-24T11:14:29.447Z,31.40
2022-08-24T11:17:17.597Z,31.50
2022-08-24T11:19:44.562Z,31.50
2022-08-24T11:22:43.080Z,31.60
2022-08-24T11:25:19.824Z,31.60
2022-08-24T11:27:50.315Z,31.70
2022-08-24T11:30:20.083Z,31.80
2022-08-24T11:32:56.434Z,31.90
2022-08-24T11:35:32.052Z,31.90
2022-08-24T11:38:16.024Z,32.10
2022-08-24T11:40:48.369Z,32.10
2022-08-24T11:43:42.010Z,32.30
2022-08-24T11:46:20.427Z,32.30
2022-08-24T11:48:47.076Z,32.40
2022-08-24T11:51:37.045Z,32.50
2022-08-24T11:54:34.216Z,32.60
2022-08-24T11:57:28.368Z,32.70
2022-08-24T12:00:16.277Z,32.70
2022-08-24T12:03:20.148Z,32.80
2022-08-24T12:05:58.504Z,33.00
2022-08-24T12:08:36.045Z,33.00
2022-08-24T12:11:18.999Z,33.10
2022-08-24T12:14:04.716Z,33.20
2022-08-24T12:17:00.068Z,33.20
2022-08-24T12:19:29.973Z,33.40
2022-08-24T12:21:59.829Z,33.40
2022-08-24T12:24:44.360Z,33.50
2022-08-24T12:27:17.977Z,33.60
2022-08-24T12:29:50.034Z,33.70
2022-08-24T12:32:21.885Z,33.80
2022-08-24T12:34:58.908Z,33.90
2022-08-24T12:37:45.312Z,33.90
2022-08-24T12:40:31.555Z,33.90
2022-08-24T12:43:20.773Z,34.00
2022-08-24T12:45:47.927Z,34.10
2022-08-24T12:48:24.365Z,34.20
2022-08-24T12:51:34.986Z,34.20
2022-08-24T12:54:20.607Z,34.30
2022-08-24T12:56:52.169Z,34.40
2022-08-24T12:59:41.262Z,34.50
2022-08-24T13:02:27.173Z,34.50
2022-08-24T13:04:53.870Z,34.60
2022-08-24T13:07:23.669Z,34.60
2022-08-24T13:09:53.541Z,34.70
2022-08-24T13:12:38.613Z,34.80
2022-08-24T13:15:23.783Z,34.90
2022-08-24T13:17:51.213Z,35.00
2022-08-24T13:20:29.481Z,35.10
2022-08-24T13:23:11.188Z,35.20
2022-08-24T13:25:50.576Z,35.30
2022-08-24T13:28:23.087Z,35.40
2022-08-24T13:31:05.934Z,35.50
2022-08-24T13:33:57.526Z,35.60
2022-08-24T13:36:45.179Z,35.60
2022-08-24T13:39:24.334Z,35.80
2022-08-24T13:42:16.751Z,35.90
2022-08-24T13:45:05.823Z,36.00
2022-08-24T13:47:56.637Z,36.10
2022-08-24T13:50:31.642Z,36.20
2022-08-24T13:53:13.585Z,36.30
2022-08-24T13:55:53.700Z,36.40
2022-08-24T13:58:39.497Z,36.50
2022-08-24T14:01:30.625Z,36.60
2022-08-24T14:04:25.603Z,36.70
2022-08-24T14:07:22.074Z,36.80
2022-08-24T14:09:51.542Z,36.90
2022-08-24T14:12:30.682Z,37.00
2022-08-24T14:15:26.617Z,37.10
2022-08-24T14:18:08.394Z,37.20
2022-08-24T14:21:11.838Z,37.20
2022-08-24T14:23:47.764Z,37.30
2022-08-24T14:26:33.132Z,37.40
2022-08-24T14:29:15.125Z,37.50
2022-08-24T14:32:11.621Z,37.60
2022-08-24T14:35:02.641Z,37.70
2022-08-24T14:37:56.743Z,37.70
2022-08-24T14:40:34.871Z,37.80
2022-08-24T14:43:11.023Z,37.90
2022-08-24T14:46:33.587Z,37.90
2022-08-24T14:49:03.630Z,38.00
2022-08-24T14:52:08.060Z,38.00
2022-08-24T14:54:54.854Z,38.00
2022-08-24T14:57:49.463Z,38.20
2022-08-24T15:00:20.774Z,38.20
2022-08-24T15:03:20.444Z,38.30
2022-08-24T15:06:28.201Z,38.30
2022-08-24T15:09:08.371Z,38.40
2022-08-24T15:11:37.527Z,38.50
2022-08-24T15:14:11.449Z,38.50
2022-08-24T15:17:07.828Z,38.50
2022-08-24T15:20:00.813Z,38.60
2022-08-24T15:22:33.902Z,38.60
2022-08-24T15:25:28.222Z,38.60
2022-08-24T15:27:58.004Z,38.70
2022-08-24T15:30:28.071Z,38.70
2022-08-24T15:33:21.952Z,38.70
2022-08-24T15:35:51.894Z,38.70
2022-08-24T15:38:30.491Z,38.70
2022-08-24T15:41:08.628Z,38.70
2022-08-24T15:43:38.602Z,38.70
2022-08-24T15:46:05.989Z,38.70
2022-08-24T15:48:32.872Z,38.70
2022-08-24T15:51:01.085Z,38.70
2022-08-24T15:53:40.527Z,38.70
2022-08-24T15:56:21.009Z,38.70
2022-08-24T15:58:49.600Z,38.70
2022-08-24T16:01:35.339Z,38.60
2022-08-24T16:04:06.258Z,38.60
2022-08-24T16:06:33.400Z,38.50
2022-08-24T16:09:15.563Z,38.50
2022-08-24T16:11:48.282Z,38.40
2022-08-24T16:14:28.768Z,38.30
2022-08-24T16:16:57.463Z,38.30
2022-08-24T16:19:30.431Z,38.20
2022-08-24T16:22:01.084Z,38.10
2022-08-24T16:24:41.160Z,38.00
2022-08-24T16:27:14.394Z,38.00
2022-08-24T16:29:45.356Z,37.80
2022-08-24T16:32:22.917Z,37.70
2022-08-24T16:35:08.715Z,37.70
2022-08-24T16:37:36.428Z,37.60
2022-08-24T16:40:05.010Z,37.50
2022-08-24T16:42:32.231Z,37.40
2022-08-24T16:44:59.815Z,37.30
2022-08-24T16:47:28.433Z,37.20
2022-08-24T16:49:56.490Z,37.20
2022-08-24T16:52:23.721Z,37.10
2022-08-24T16:54:52.234Z,37.00
2022-08-24T16:57:25.659Z,36.90
2022-08-24T16:59:53.781Z,36.90
2022-08-24T17:02:22.837Z,36.80
2022-08-24T17:04:50.035Z,36.70
2022-08-24T17:07:21.345Z,36.60
2022-08-24T17:09:49.342Z,36.50
2022-08-24T17:12:16.778Z,36.50
2022-08-24T17:14:44.613Z,36.30
2022-08-24T17:17:21.405Z,36.30
2022-08-24T17:19:54.035Z,36.20
2022-08-24T17:22:22.484Z,36.20
2022-08-24T17:24:50.330Z,36.10
2022-08-24T17:27:19.608Z,36.00
2022-08-24T17:29:47.021Z,35.90
2022-08-24T17:32:14.676Z,35.80
2022-08-24T17:34:43.392Z,35.80
2022-08-24T17:37:11.409Z,35.70
2022-08-24T17:39:38.775Z,35.60
2022-08-24T17:42:20.970Z,35.60
2022-08-24T17:44:55.694Z,35.50
2022-08-24T17:47:22.894Z,35.40
2022-08-24T17:49:50.190Z,35.30
2022-08-24T17:52:17.172Z,35.20
2022-08-24T17:54:44.404Z,35.20
2022-08-24T17:57:13.093Z,35.10
2022-08-24T17:59:40.874Z,35.10
2022-08-24T18:02:13.070Z,35.00
2022-08-24T18:04:41.150Z,35.00
2022-08-24T18:07:12.152Z,34.80
2022-08-24T18:09:56.824Z,34.80
2022-08-24T18:12:25.580Z,34.70
2022-08-24T18:14:53.100Z,34.60
2022-08-24T18:17:33.897Z,34.60
2022-08-24T18:20:01.778Z,34.50
2022-08-24T18:22:29.524Z,34.40
2022-08-24T18:24:57.155Z,34.40
2022-08-24T18:27:29.953Z,34.30
2022-08-24T18:30:03.398Z,34.30
2022-08-24T18:32:39.059Z,34.20
2022-08-24T18:35:08.195Z,34.10
2022-08-24T18:37:35.132Z,34.00
2022-08-24T18:40:02.207Z,34.00
2022-08-24T18:42:29.245Z,33.90
2022-08-24T18:44:56.210Z,33.90
2022-08-24T18:47:23.324Z,33.80
2022-08-24T18:49:50.429Z,33.80
2022-08-24T18:52:19.189Z,33.70
2022-08-24T18:54:48.336Z,33.70
2022-08-24T18:57:15.675Z,33.60
2022-08-24T18:59:45.994Z,33.50
2022-08-24T19:02:33.168Z,33.40
2022-08-24T19:05:14.828Z,33.30
2022-08-24T19:07:45.736Z,33.30
2022-08-24T19:10:15.931Z,33.20
2022-08-24T19:12:46.833Z,33.20
2022-08-24T19:15:32.167Z,33.20
2022-08-24T19:18:02.594Z,33.10
2022-08-24T19:20:29.670Z,33.10
2022-08-24T19:23:04.720Z,33.00
2022-08-24T19:25:33.071Z,32.90
2022-08-24T19:28:00.045Z,32.90
2022-08-24T19:30:28.161Z,32.80
2022-08-24T19:32:58.695Z,32.80
2022-08-24T19:35:25.634Z,32.70
2022-08-24T19:37:52.690Z,32.60
2022-08-24T19:40:22.614Z,32.60
2022-08-24T19:42:53.549Z,32.50
2022-08-24T19:45:43.393Z,32.40
2022-08-24T19:48:11.326Z,32.40
2022-08-24T19:50:39.055Z,32.30
2022-08-24T19:53:06.484Z,32.20
2022-08-24T19:55:33.616Z,32.20
2022-08-24T19:58:23.634Z,32.10
2022-08-24T20:00:57.371Z,32.10
2022-08-24T20:03:24.805Z,32.00
2022-08-24T20:05:51.736Z,31.80
2022-08-24T20:08:20.116Z,31.90
2022-08-24T20:10:47.891Z,31.80
2022-08-24T20:13:14.659Z,31.80
2022-08-24T20:15:44.840Z,31.70
2022-08-24T20:18:12.453Z,31.60
2022-08-24T20:20:39.430Z,31.60
2022-08-24T20:23:07.237Z,31.60
2022-08-24T20:25:35.912Z,31.50
2022-08-24T20:28:27.603Z,31.40
2022-08-24T20:30:51.562Z,31.40
2022-08-24T20:33:23.798Z,31.30
2022-08-24T20:35:51.194Z,31.20
2022-08-24T20:38:19.930Z,31.20
2022-08-24T20:40:47.657Z,31.10
2022-08-24T20:43:14.730Z,31.10
2022-08-24T20:45:41.976Z,31.00
2022-08-24T20:48:12.073Z,30.90
2022-08-24T20:50:43.383Z,30.90
2022-08-24T20:56:11.808Z,30.70
2022-08-24T20:58:41.841Z,30.70
2022-08-24T21:01:08.796Z,30.70
2022-08-24T21:03:38.503Z,30.60
2022-08-24T21:06:09.099Z,30.60
2022-08-24T21:08:36.095Z,30.50
2022-08-24T21:11:03.959Z,30.40
2022-08-24T21:13:30.811Z,30.40
2022-08-24T21:15:57.861Z,30.30
2022-08-24T21:18:24.691Z,30.30
2022-08-24T21:21:04.143Z,30.20
2022-08-24T21:23:32.908Z,30.20
2022-08-24T21:26:02.246Z,30.20
2022-08-24T21:28:29.251Z,30.10
2022-08-24T21:30:56.069Z,30.00
2022-08-24T21:33:41.734Z,30.00
2022-08-24T21:36:09.020Z,29.80
2022-08-24T21:38:35.855Z,29.80
2022-08-24T21:41:02.959Z,29.80
2022-08-24T21:43:31.891Z,29.70
2022-08-24T21:45:59.027Z,29.70
2022-08-24T21:48:32.373Z,29.60
2022-08-24T21:50:59.062Z,29.60
2022-08-24T21:53:28.406Z,29.50
2022-08-24T21:55:55.939Z,29.50
2022-08-24T21:58:24.066Z,29.50
2022-08-24T22:00:51.912Z,29.40
2022-08-24T22:03:19.562Z,29.30
2022-08-24T22:05:46.274Z,29.30
2022-08-24T22:08:12.991Z,29.20
2022-08-24T22:10:39.742Z,29.20
2022-08-24T22:13:07.041Z,29.10
2022-08-24T22:15:34.049Z,29.10
2022-08-24T22:18:01.485Z,29.00
2022-08-24T22:20:28.376Z,29.00
2022-08-24T22:22:55.157Z,28.90
2022-08-24T22:25:21.872Z,28.90
2022-08-24T22:27:48.711Z,28.80
2022-08-24T22:30:17.778Z,28.80
2022-08-24T22:32:45.621Z,28.70
2022-08-24T22:35:12.635Z,28.70
2022-08-24T22:37:39.545Z,28.60
2022-08-24T22:40:10.212Z,28.60
2022-08-24T22:42:40.060Z,28.50
2022-08-24T22:45:07.665Z,28.50
2022-08-24T22:47:34.403Z,28.40
2022-08-24T22:50:03.146Z,28.40
2022-08-24T22:52:29.871Z,28.40
2022-08-24T22:54:57.687Z,28.30
2022-08-24T22:57:25.146Z,28.30
2022-08-24T22:59:53.653Z,28.20
2022-08-24T23:02:20.486Z,28.20
2022-08-24T23:04:49.787Z,28.10
2022-08-24T23:07:17.189Z,28.10
2022-08-24T23:09:45.559Z,28.10
2022-08-24T23:12:16.517Z,28.00
2022-08-24T23:14:43.955Z,28.00
2022-08-24T23:17:11.420Z,27.90
2022-08-24T23:19:57.115Z,27.90
2022-08-24T23:22:23.993Z,27.90
2022-08-24T23:24:52.861Z,27.80
2022-08-24T23:27:20.926Z,27.80
2022-08-24T23:29:49.424Z,27.80
2022-08-24T23:32:17.918Z,27.70
2022-08-24T23:34:46.176Z,27.60
2022-08-24T23:37:13.745Z,27.60
2022-08-24T23:39:40.451Z,27.50
2022-08-24T23:42:07.338Z,27.50
2022-08-24T23:44:34.495Z,27.50
2022-08-24T23:47:01.371Z,27.40
2022-08-24T23:49:29.380Z,27.40
2022-08-24T23:51:56.628Z,27.40
2022-08-24T23:54:23.881Z,27.30
2022-08-24T23:56:51.355Z,27.30
2022-08-24T23:59:27.453Z,27.30
